sensor_id;sensor_type;location;lat;lon;timestamp;P1;durP1;ratioP1;P2;durP2;ratioP2
24721;SDS011;12826;52.368;5.258;2022-09-12T00:00:08;21.52;;;17.77;;
24721;SDS011;12826;52.368;5.258;2022-09-12T00:03:14;21.60;;;17.15;;
24721;SDS011;12826;52.368;5.258;2022-09-12T00:06:25;23.25;;;17.50;;
24721;SDS011;12826;52.368;5.258;2022-09-12T00:09:30;20.27;;;17.07;;
24721;SDS011;12826;52.368;5.258;2022-09-12T00:15:38;24.02;;;19.00;;
24721;SDS011;12826;52.368;5.258;2022-09-12T00:18:42;27.80;;;19.85;;
24721;SDS011;12826;52.368;5.258;2022-09-12T00:21:49;27.27;;;20.38;;
24721;SDS011;12826;52.368;5.258;2022-09-12T00:24:52;25.58;;;19.70;;
24721;SDS011;12826;52.368;5.258;2022-09-12T00:27:55;24.50;;;19.58;;
24721;SDS011;12826;52.368;5.258;2022-09-12T00:31:06;22.77;;;18.55;;
24721;SDS011;12826;52.368;5.258;2022-09-12T00:34:11;23.63;;;20.02;;
24721;SDS011;12826;52.368;5.258;2022-09-12T00:37:19;25.00;;;18.95;;
24721;SDS011;12826;52.368;5.258;2022-09-12T00:40:23;23.75;;;18.17;;
24721;SDS011;12826;52.368;5.258;2022-09-12T00:49:42;22.23;;;18.27;;
24721;SDS011;12826;52.368;5.258;2022-09-12T00:56:13;25.63;;;19.55;;
24721;SDS011;12826;52.368;5.258;2022-09-12T00:59:17;26.65;;;20.65;;
24721;SDS011;12826;52.368;5.258;2022-09-12T01:02:33;28.42;;;20.17;;
24721;SDS011;12826;52.368;5.258;2022-09-12T01:05:35;27.98;;;20.08;;
24721;SDS011;12826;52.368;5.258;2022-09-12T01:11:52;28.63;;;21.00;;
24721;SDS011;12826;52.368;5.258;2022-09-12T01:14:59;29.77;;;21.58;;
24721;SDS011;12826;52.368;5.258;2022-09-12T01:24:50;32.92;;;23.40;;
24721;SDS011;12826;52.368;5.258;2022-09-12T01:31:11;36.15;;;26.08;;
24721;SDS011;12826;52.368;5.258;2022-09-12T01:43:43;34.88;;;25.13;;
24721;SDS011;12826;52.368;5.258;2022-09-12T01:47:11;35.72;;;25.50;;
24721;SDS011;12826;52.368;5.258;2022-09-12T01:53:26;35.38;;;25.58;;
24721;SDS011;12826;52.368;5.258;2022-09-12T01:56:30;35.20;;;25.70;;
24721;SDS011;12826;52.368;5.258;2022-09-12T02:02:43;34.47;;;25.63;;
24721;SDS011;12826;52.368;5.258;2022-09-12T02:05:59;35.30;;;25.27;;
24721;SDS011;12826;52.368;5.258;2022-09-12T02:09:05;41.28;;;29.15;;
24721;SDS011;12826;52.368;5.258;2022-09-12T02:12:10;38.08;;;27.23;;
24721;SDS011;12826;52.368;5.258;2022-09-12T02:21:27;38.28;;;26.98;;
24721;SDS011;12826;52.368;5.258;2022-09-12T02:24:36;44.22;;;30.13;;
24721;SDS011;12826;52.368;5.258;2022-09-12T02:27:49;40.67;;;29.23;;
24721;SDS011;12826;52.368;5.258;2022-09-12T02:41:10;44.30;;;29.45;;
24721;SDS011;12826;52.368;5.258;2022-09-12T02:44:18;44.03;;;28.80;;
24721;SDS011;12826;52.368;5.258;2022-09-12T02:47:22;43.05;;;28.85;;
24721;SDS011;12826;52.368;5.258;2022-09-12T02:53:34;41.00;;;29.20;;
24721;SDS011;12826;52.368;5.258;2022-09-12T03:00:15;43.35;;;29.38;;
24721;SDS011;12826;52.368;5.258;2022-09-12T03:07:15;47.47;;;31.38;;
24721;SDS011;12826;52.368;5.258;2022-09-12T03:27:26;40.15;;;28.73;;
24721;SDS011;12826;52.368;5.258;2022-09-12T03:30:30;40.80;;;29.15;;
24721;SDS011;12826;52.368;5.258;2022-09-12T03:36:36;41.78;;;29.73;;
24721;SDS011;12826;52.368;5.258;2022-09-12T03:39:54;44.55;;;31.17;;
24721;SDS011;12826;52.368;5.258;2022-09-12T03:43:05;48.33;;;32.83;;
24721;SDS011;12826;52.368;5.258;2022-09-12T03:46:12;43.95;;;31.15;;
24721;SDS011;12826;52.368;5.258;2022-09-12T03:49:40;46.40;;;32.05;;
24721;SDS011;12826;52.368;5.258;2022-09-12T03:52:51;45.17;;;31.27;;
24721;SDS011;12826;52.368;5.258;2022-09-12T03:56:06;45.20;;;29.92;;
24721;SDS011;12826;52.368;5.258;2022-09-12T03:59:13;43.53;;;29.60;;
24721;SDS011;12826;52.368;5.258;2022-09-12T04:05:19;43.78;;;31.08;;
24721;SDS011;12826;52.368;5.258;2022-09-12T04:08:22;43.58;;;29.15;;
24721;SDS011;12826;52.368;5.258;2022-09-12T04:14:31;39.70;;;27.60;;
24721;SDS011;12826;52.368;5.258;2022-09-12T04:17:38;41.30;;;29.50;;
24721;SDS011;12826;52.368;5.258;2022-09-12T04:20:41;43.10;;;29.20;;
24721;SDS011;12826;52.368;5.258;2022-09-12T04:23:42;40.53;;;28.70;;
24721;SDS011;12826;52.368;5.258;2022-09-12T04:26:43;42.78;;;30.13;;
24721;SDS011;12826;52.368;5.258;2022-09-12T04:33:17;39.25;;;27.77;;
24721;SDS011;12826;52.368;5.258;2022-09-12T04:39:23;45.58;;;31.25;;
24721;SDS011;12826;52.368;5.258;2022-09-12T04:42:27;37.63;;;27.73;;
24721;SDS011;12826;52.368;5.258;2022-09-12T04:45:28;41.75;;;29.83;;
24721;SDS011;12826;52.368;5.258;2022-09-12T04:48:32;40.47;;;27.80;;
24721;SDS011;12826;52.368;5.258;2022-09-12T04:51:35;40.90;;;29.23;;
24721;SDS011;12826;52.368;5.258;2022-09-12T04:54:50;44.10;;;29.67;;
24721;SDS011;12826;52.368;5.258;2022-09-12T04:57:54;40.75;;;28.85;;
24721;SDS011;12826;52.368;5.258;2022-09-12T05:04:05;45.47;;;29.98;;
24721;SDS011;12826;52.368;5.258;2022-09-12T05:07:06;39.88;;;28.30;;
24721;SDS011;12826;52.368;5.258;2022-09-12T05:13:13;43.50;;;29.23;;
24721;SDS011;12826;52.368;5.258;2022-09-12T05:16:18;45.13;;;32.03;;
24721;SDS011;12826;52.368;5.258;2022-09-12T05:22:31;45.80;;;30.92;;
24721;SDS011;12826;52.368;5.258;2022-09-12T05:25:59;46.60;;;31.42;;
24721;SDS011;12826;52.368;5.258;2022-09-12T05:35:50;46.30;;;30.95;;
24721;SDS011;12826;52.368;5.258;2022-09-12T05:42:08;42.15;;;29.73;;
24721;SDS011;12826;52.368;5.258;2022-09-12T05:45:20;44.53;;;30.55;;
24721;SDS011;12826;52.368;5.258;2022-09-12T05:48:41;49.75;;;32.17;;
24721;SDS011;12826;52.368;5.258;2022-09-12T05:51:43;44.78;;;30.77;;
24721;SDS011;12826;52.368;5.258;2022-09-12T05:54:52;44.65;;;30.55;;
24721;SDS011;12826;52.368;5.258;2022-09-12T05:57:52;46.97;;;31.35;;
24721;SDS011;12826;52.368;5.258;2022-09-12T06:00:54;46.25;;;31.38;;
24721;SDS011;12826;52.368;5.258;2022-09-12T06:11:23;46.63;;;29.92;;
24721;SDS011;12826;52.368;5.258;2022-09-12T06:14:57;47.05;;;30.02;;
24721;SDS011;12826;52.368;5.258;2022-09-12T07:02:07;53.00;;;33.75;;
24721;SDS011;12826;52.368;5.258;2022-09-12T08:40:36;29.67;;;21.02;;
24721;SDS011;12826;52.368;5.258;2022-09-12T08:47:13;30.33;;;21.85;;
24721;SDS011;12826;52.368;5.258;2022-09-12T08:53:44;26.60;;;20.58;;
24721;SDS011;12826;52.368;5.258;2022-09-12T08:57:02;29.38;;;22.20;;
24721;SDS011;12826;52.368;5.258;2022-09-12T09:23:48;20.13;;;14.77;;
24721;SDS011;12826;52.368;5.258;2022-09-12T09:35:17;16.63;;;11.63;;
24721;SDS011;12826;52.368;5.258;2022-09-12T09:42:45;15.35;;;9.70;;
24721;SDS011;12826;52.368;5.258;2022-09-12T09:57:01;6.50;;;5.75;;
24721;SDS011;12826;52.368;5.258;2022-09-12T10:00:22;6.80;;;5.53;;
24721;SDS011;12826;52.368;5.258;2022-09-12T10:04:08;8.43;;;6.37;;
24721;SDS011;12826;52.368;5.258;2022-09-12T10:14:42;8.40;;;7.50;;
24721;SDS011;12826;52.368;5.258;2022-09-12T10:17:54;10.00;;;7.97;;
24721;SDS011;12826;52.368;5.258;2022-09-12T10:20:55;8.55;;;7.65;;
24721;SDS011;12826;52.368;5.258;2022-09-12T10:24:18;9.07;;;8.13;;
24721;SDS011;12826;52.368;5.258;2022-09-12T10:27:21;8.65;;;7.80;;
24721;SDS011;12826;52.368;5.258;2022-09-12T10:30:23;10.75;;;7.47;;
24721;SDS011;12826;52.368;5.258;2022-09-12T10:33:27;10.57;;;7.88;;
24721;SDS011;12826;52.368;5.258;2022-09-12T10:36:34;11.60;;;8.38;;
24721;SDS011;12826;52.368;5.258;2022-09-12T10:39:37;10.35;;;8.65;;
24721;SDS011;12826;52.368;5.258;2022-09-12T10:42:51;10.18;;;7.85;;
24721;SDS011;12826;52.368;5.258;2022-09-12T10:46:09;10.45;;;7.13;;
24721;SDS011;12826;52.368;5.258;2022-09-12T10:52:21;10.40;;;7.93;;
24721;SDS011;12826;52.368;5.258;2022-09-12T10:55:27;9.48;;;8.18;;
24721;SDS011;12826;52.368;5.258;2022-09-12T11:32:02;5.97;;;4.93;;
24721;SDS011;12826;52.368;5.258;2022-09-12T11:35:46;6.18;;;4.75;;
24721;SDS011;12826;52.368;5.258;2022-09-12T11:51:13;7.30;;;3.90;;
24721;SDS011;12826;52.368;5.258;2022-09-12T12:09:12;4.32;;;3.42;;
24721;SDS011;12826;52.368;5.258;2022-09-12T15:38:50;5.97;;;2.90;;
24721;SDS011;12826;52.368;5.258;2022-09-12T15:41:51;3.60;;;2.83;;
24721;SDS011;12826;52.368;5.258;2022-09-12T15:44:51;3.63;;;3.33;;
24721;SDS011;12826;52.368;5.258;2022-09-12T15:47:53;3.80;;;3.50;;
24721;SDS011;12826;52.368;5.258;2022-09-12T15:50:54;4.57;;;3.25;;
24721;SDS011;12826;52.368;5.258;2022-09-12T15:54:03;4.32;;;3.40;;
24721;SDS011;12826;52.368;5.258;2022-09-12T15:57:04;3.50;;;3.13;;
24721;SDS011;12826;52.368;5.258;2022-09-12T16:00:07;3.63;;;3.00;;
24721;SDS011;12826;52.368;5.258;2022-09-12T16:03:15;3.38;;;3.08;;
24721;SDS011;12826;52.368;5.258;2022-09-12T16:06:20;3.20;;;2.90;;
24721;SDS011;12826;52.368;5.258;2022-09-12T16:09:23;4.68;;;3.10;;
24721;SDS011;12826;52.368;5.258;2022-09-12T16:12:27;3.83;;;2.97;;
24721;SDS011;12826;52.368;5.258;2022-09-12T16:15:27;3.10;;;2.80;;
24721;SDS011;12826;52.368;5.258;2022-09-12T16:18:27;4.90;;;3.35;;
24721;SDS011;12826;52.368;5.258;2022-09-12T16:21:28;3.22;;;2.90;;
24721;SDS011;12826;52.368;5.258;2022-09-12T16:24:28;3.72;;;2.80;;
24721;SDS011;12826;52.368;5.258;2022-09-12T16:27:30;3.75;;;2.70;;
24721;SDS011;12826;52.368;5.258;2022-09-12T16:30:31;3.08;;;2.78;;
24721;SDS011;12826;52.368;5.258;2022-09-12T16:33:32;3.75;;;2.90;;
24721;SDS011;12826;52.368;5.258;2022-09-12T16:36:33;3.40;;;3.10;;
24721;SDS011;12826;52.368;5.258;2022-09-12T16:39:33;2.80;;;2.60;;
24721;SDS011;12826;52.368;5.258;2022-09-12T16:42:42;4.47;;;2.92;;
24721;SDS011;12826;52.368;5.258;2022-09-12T16:49:43;5.70;;;3.42;;
24721;SDS011;12826;52.368;5.258;2022-09-12T16:57:20;3.17;;;2.88;;
24721;SDS011;12826;52.368;5.258;2022-09-12T17:05:28;3.20;;;2.72;;
24721;SDS011;12826;52.368;5.258;2022-09-12T17:12:50;3.80;;;3.50;;
24721;SDS011;12826;52.368;5.258;2022-09-12T17:15:53;3.13;;;2.90;;
24721;SDS011;12826;52.368;5.258;2022-09-12T17:18:54;3.80;;;3.20;;
24721;SDS011;12826;52.368;5.258;2022-09-12T17:21:55;6.00;;;3.17;;
24721;SDS011;12826;52.368;5.258;2022-09-12T17:24:56;4.72;;;3.40;;
24721;SDS011;12826;52.368;5.258;2022-09-12T17:27:56;3.40;;;2.88;;
24721;SDS011;12826;52.368;5.258;2022-09-12T17:31:00;4.68;;;3.03;;
24721;SDS011;12826;52.368;5.258;2022-09-12T17:34:02;4.45;;;3.13;;
24721;SDS011;12826;52.368;5.258;2022-09-12T17:37:02;3.15;;;2.95;;
24721;SDS011;12826;52.368;5.258;2022-09-12T17:40:03;3.97;;;3.20;;
24721;SDS011;12826;52.368;5.258;2022-09-12T17:43:04;3.08;;;2.78;;
24721;SDS011;12826;52.368;5.258;2022-09-12T17:46:04;3.67;;;2.90;;
24721;SDS011;12826;52.368;5.258;2022-09-12T17:49:13;4.45;;;3.20;;
24721;SDS011;12826;52.368;5.258;2022-09-12T17:52:14;4.50;;;3.30;;
24721;SDS011;12826;52.368;5.258;2022-09-12T17:55:14;3.30;;;3.03;;
24721;SDS011;12826;52.368;5.258;2022-09-12T17:58:15;3.65;;;3.35;;
24721;SDS011;12826;52.368;5.258;2022-09-12T18:01:15;3.50;;;2.95;;
24721;SDS011;12826;52.368;5.258;2022-09-12T18:04:34;3.55;;;3.15;;
24721;SDS011;12826;52.368;5.258;2022-09-12T18:07:35;5.28;;;3.10;;
24721;SDS011;12826;52.368;5.258;2022-09-12T18:13:46;3.50;;;3.17;;
24721;SDS011;12826;52.368;5.258;2022-09-12T18:20:07;5.40;;;3.50;;
24721;SDS011;12826;52.368;5.258;2022-09-12T18:23:11;3.55;;;3.15;;
24721;SDS011;12826;52.368;5.258;2022-09-12T18:29:21;6.65;;;3.53;;
24721;SDS011;12826;52.368;5.258;2022-09-12T18:32:26;4.18;;;3.75;;
24721;SDS011;12826;52.368;5.258;2022-09-12T18:35:40;10.00;;;8.38;;
24721;SDS011;12826;52.368;5.258;2022-09-12T18:38:44;11.43;;;8.95;;
24721;SDS011;12826;52.368;5.258;2022-09-12T18:41:48;7.22;;;6.03;;
24721;SDS011;12826;52.368;5.258;2022-09-12T18:44:52;5.93;;;5.32;;
24721;SDS011;12826;52.368;5.258;2022-09-12T18:47:54;9.32;;;5.40;;
24721;SDS011;12826;52.368;5.258;2022-09-12T18:51:07;6.07;;;4.93;;
24721;SDS011;12826;52.368;5.258;2022-09-12T18:54:13;6.10;;;4.68;;
24721;SDS011;12826;52.368;5.258;2022-09-12T19:00:20;6.35;;;4.00;;
24721;SDS011;12826;52.368;5.258;2022-09-12T19:03:21;6.40;;;4.22;;
24721;SDS011;12826;52.368;5.258;2022-09-12T19:06:23;5.40;;;4.00;;
24721;SDS011;12826;52.368;5.258;2022-09-12T19:12:33;5.32;;;4.47;;
24721;SDS011;12826;52.368;5.258;2022-09-12T19:15:58;4.45;;;4.00;;
24721;SDS011;12826;52.368;5.258;2022-09-12T19:19:05;4.32;;;3.70;;
24721;SDS011;12826;52.368;5.258;2022-09-12T19:25:15;5.28;;;4.55;;
24721;SDS011;12826;52.368;5.258;2022-09-12T19:28:16;5.13;;;4.53;;
24721;SDS011;12826;52.368;5.258;2022-09-12T19:34:33;5.25;;;4.10;;
24721;SDS011;12826;52.368;5.258;2022-09-12T19:37:40;6.43;;;4.00;;
24721;SDS011;12826;52.368;5.258;2022-09-12T19:40:43;4.85;;;4.00;;
24721;SDS011;12826;52.368;5.258;2022-09-12T19:43:57;5.25;;;3.90;;
24721;SDS011;12826;52.368;5.258;2022-09-12T19:50:10;4.95;;;4.10;;
24721;SDS011;12826;52.368;5.258;2022-09-12T19:53:11;6.88;;;4.00;;
24721;SDS011;12826;52.368;5.258;2022-09-12T19:59:15;5.00;;;4.47;;
24721;SDS011;12826;52.368;5.258;2022-09-12T20:02:21;4.68;;;4.28;;
24721;SDS011;12826;52.368;5.258;2022-09-12T20:08:24;6.13;;;4.53;;
24721;SDS011;12826;52.368;5.258;2022-09-12T20:11:25;5.35;;;4.85;;
24721;SDS011;12826;52.368;5.258;2022-09-12T20:17:38;6.82;;;4.60;;
24721;SDS011;12826;52.368;5.258;2022-09-12T20:20:39;6.03;;;4.72;;
24721;SDS011;12826;52.368;5.258;2022-09-12T20:23:46;6.15;;;5.50;;
24721;SDS011;12826;52.368;5.258;2022-09-12T20:26:46;5.68;;;4.88;;
24721;SDS011;12826;52.368;5.258;2022-09-12T20:29:47;7.05;;;5.22;;
24721;SDS011;12826;52.368;5.258;2022-09-12T20:36:05;14.00;;;9.95;;
24721;SDS011;12826;52.368;5.258;2022-09-12T20:39:15;11.57;;;9.43;;
24721;SDS011;12826;52.368;5.258;2022-09-12T20:42:17;8.25;;;6.93;;
24721;SDS011;12826;52.368;5.258;2022-09-12T20:45:18;7.30;;;6.18;;
24721;SDS011;12826;52.368;5.258;2022-09-12T20:51:31;8.68;;;5.47;;
24721;SDS011;12826;52.368;5.258;2022-09-12T20:54:32;5.70;;;5.05;;
24721;SDS011;12826;52.368;5.258;2022-09-12T20:57:40;6.10;;;5.30;;
24721;SDS011;12826;52.368;5.258;2022-09-12T21:00:40;5.78;;;5.10;;
24721;SDS011;12826;52.368;5.258;2022-09-12T21:03:42;6.97;;;5.60;;
24721;SDS011;12826;52.368;5.258;2022-09-12T21:06:43;7.95;;;5.57;;
24721;SDS011;12826;52.368;5.258;2022-09-12T21:09:43;5.72;;;5.15;;
24721;SDS011;12826;52.368;5.258;2022-09-12T21:12:44;6.07;;;5.47;;
24721;SDS011;12826;52.368;5.258;2022-09-12T21:18:55;5.72;;;5.10;;
24721;SDS011;12826;52.368;5.258;2022-09-12T21:21:57;7.07;;;5.45;;
24721;SDS011;12826;52.368;5.258;2022-09-12T21:28:04;5.53;;;5.03;;
24721;SDS011;12826;52.368;5.258;2022-09-12T21:31:04;6.43;;;5.75;;
24721;SDS011;12826;52.368;5.258;2022-09-12T21:34:05;7.38;;;5.75;;
24721;SDS011;12826;52.368;5.258;2022-09-12T21:37:10;7.43;;;5.57;;
24721;SDS011;12826;52.368;5.258;2022-09-12T21:40:11;6.35;;;5.75;;
24721;SDS011;12826;52.368;5.258;2022-09-12T21:43:16;8.40;;;6.10;;
24721;SDS011;12826;52.368;5.258;2022-09-12T21:46:20;6.50;;;5.88;;
24721;SDS011;12826;52.368;5.258;2022-09-12T21:49:22;6.82;;;6.07;;
24721;SDS011;12826;52.368;5.258;2022-09-12T21:55:28;8.35;;;6.07;;
24721;SDS011;12826;52.368;5.258;2022-09-12T21:58:30;7.28;;;5.57;;
24721;SDS011;12826;52.368;5.258;2022-09-12T22:01:32;8.65;;;5.45;;
24721;SDS011;12826;52.368;5.258;2022-09-12T22:04:33;8.80;;;5.95;;
24721;SDS011;12826;52.368;5.258;2022-09-12T22:07:36;6.57;;;5.55;;
24721;SDS011;12826;52.368;5.258;2022-09-12T22:10:39;6.60;;;5.45;;
24721;SDS011;12826;52.368;5.258;2022-09-12T22:13:40;7.43;;;6.03;;
24721;SDS011;12826;52.368;5.258;2022-09-12T22:17:04;6.72;;;5.93;;
24721;SDS011;12826;52.368;5.258;2022-09-12T22:23:14;8.13;;;6.15;;
24721;SDS011;12826;52.368;5.258;2022-09-12T22:26:43;7.82;;;6.63;;
24721;SDS011;12826;52.368;5.258;2022-09-12T22:29:45;9.27;;;6.57;;
24721;SDS011;12826;52.368;5.258;2022-09-12T22:36:30;8.88;;;6.03;;
24721;SDS011;12826;52.368;5.258;2022-09-12T22:42:38;9.27;;;6.27;;
24721;SDS011;12826;52.368;5.258;2022-09-12T22:45:40;8.15;;;5.93;;
24721;SDS011;12826;52.368;5.258;2022-09-12T22:51:44;6.82;;;6.13;;
24721;SDS011;12826;52.368;5.258;2022-09-12T22:54:45;6.95;;;6.25;;
24721;SDS011;12826;52.368;5.258;2022-09-12T23:00:50;6.65;;;5.70;;
24721;SDS011;12826;52.368;5.258;2022-09-12T23:03:50;7.35;;;6.45;;
24721;SDS011;12826;52.368;5.258;2022-09-12T23:09:57;7.60;;;6.45;;
24721;SDS011;12826;52.368;5.258;2022-09-12T23:13:00;6.50;;;5.63;;
24721;SDS011;12826;52.368;5.258;2022-09-12T23:16:04;6.80;;;6.05;;
24721;SDS011;12826;52.368;5.258;2022-09-12T23:19:05;7.97;;;5.90;;
24721;SDS011;12826;52.368;5.258;2022-09-12T23:22:06;6.50;;;5.90;;
24721;SDS011;12826;52.368;5.258;2022-09-12T23:25:15;6.53;;;5.32;;
24721;SDS011;12826;52.368;5.258;2022-09-12T23:28:16;7.32;;;5.90;;
24721;SDS011;12826;52.368;5.258;2022-09-12T23:31:20;7.75;;;6.10;;
24721;SDS011;12826;52.368;5.258;2022-09-12T23:37:28;6.80;;;5.57;;
24721;SDS011;12826;52.368;5.258;2022-09-12T23:40:29;5.82;;;5.13;;
24721;SDS011;12826;52.368;5.258;2022-09-12T23:43:29;7.50;;;5.15;;
24721;SDS011;12826;52.368;5.258;2022-09-12T23:49:34;6.93;;;5.20;;
24721;SDS011;12826;52.368;5.258;2022-09-12T23:52:39;6.32;;;5.72;;
24721;SDS011;12826;52.368;5.258;2022-09-12T23:55:42;6.00;;;5.43;;
24721;SDS011;12826;52.368;5.258;2022-09-12T23:58:43;8.93;;;5.28;;
